createdAt,value
2023-03-03T00:01:02.204Z,100072.44
2023-03-03T00:03:29.162Z,100073.25
2023-03-03T00:05:56.133Z,100082.84
2023-03-03T00:08:23.222Z,100082.84
2023-03-03T00:10:50.569Z,100080.19
2023-03-03T00:13:24.577Z,100077.41
2023-03-03T00:15:52.828Z,100071.97
2023-03-03T00:18:35.344Z,100081.59
2023-03-03T00:21:08.838Z,100079.63
2023-03-03T00:23:40.487Z,100081.59
2023-03-03T00:26:30.804Z,100079.63
2023-03-03T00:28:57.881Z,100076.00
2023-03-03T00:31:35.323Z,100081.28
2023-03-03T00:34:17.627Z,100079.63
2023-03-03T00:36:44.928Z,100077.81
2023-03-03T00:39:38.676Z,100082.53
2023-03-03T00:42:17.867Z,100087.81
2023-03-03T00:45:00.891Z,100083.50
2023-03-03T00:47:43.624Z,100086.31
2023-03-03T00:50:10.480Z,100086.44
2023-03-03T00:52:44.653Z,100091.00
2023-03-03T00:55:12.314Z,100083.38
2023-03-03T00:57:39.297Z,100080.19
2023-03-03T01:00:10.228Z,100075.19
2023-03-03T01:02:37.305Z,100088.53
2023-03-03T01:05:04.638Z,100091.44
2023-03-03T01:07:31.703Z,100079.22
2023-03-03T01:09:58.623Z,100084.94
2023-03-03T01:12:27.082Z,100075.34
2023-03-03T01:14:55.364Z,100080.75
2023-03-03T01:17:22.582Z,100078.28
2023-03-03T01:19:49.824Z,100075.06
2023-03-03T01:22:16.856Z,100078.81
2023-03-03T01:24:46.839Z,100077.16
2023-03-03T01:27:13.779Z,100077.16
2023-03-03T01:29:40.709Z,100082.59
2023-03-03T01:32:07.751Z,100078.13
2023-03-03T01:34:34.774Z,100077.16
2023-03-03T01:37:01.781Z,100080.78
2023-03-03T01:39:28.701Z,100085.22
2023-03-03T01:41:55.789Z,100085.22
2023-03-03T01:44:22.882Z,100081.88
2023-03-03T01:47:11.834Z,100083.13
2023-03-03T01:49:55.814Z,100079.94
2023-03-03T01:52:34.436Z,100080.22
2023-03-03T01:55:10.030Z,100081.31
2023-03-03T01:57:52.524Z,100076.31
2023-03-03T02:00:20.170Z,100076.56
2023-03-03T02:02:47.558Z,100083.81
2023-03-03T02:05:16.433Z,100081.31
2023-03-03T02:07:44.892Z,100078.09
2023-03-03T02:10:16.155Z,100080.88
2023-03-03T02:12:56.039Z,100079.34
2023-03-03T02:15:32.222Z,100075.16
2023-03-03T02:18:04.999Z,100075.31
2023-03-03T02:21:14.338Z,100079.91
2023-03-03T02:23:58.424Z,100084.47
2023-03-03T02:26:29.931Z,100078.50
2023-03-03T02:29:01.870Z,100077.66
2023-03-03T02:31:31.522Z,100073.50
2023-03-03T02:33:58.920Z,100071.03
2023-03-03T02:36:33.032Z,100072.09
2023-03-03T02:39:10.693Z,100074.03
2023-03-03T02:42:02.916Z,100078.63
2023-03-03T02:44:36.782Z,100067.38
2023-03-03T02:47:04.107Z,100071.94
2023-03-03T02:49:34.934Z,100061.56
2023-03-03T02:52:05.912Z,100068.75
2023-03-03T02:54:33.338Z,100064.31
2023-03-03T02:57:03.151Z,100063.47
2023-03-03T02:59:30.573Z,100064.59
2023-03-03T03:02:01.201Z,100066.63
2023-03-03T03:04:28.898Z,100061.50
2023-03-03T03:06:56.564Z,100064.28
2023-03-03T03:09:28.165Z,100060.13
2023-03-03T03:11:55.637Z,100062.06
2023-03-03T03:14:25.904Z,100075.50
2023-03-03T03:16:54.479Z,100067.84
2023-03-03T03:19:21.591Z,100068.13
2023-03-03T03:21:48.754Z,100065.78
2023-03-03T03:24:18.043Z,100063.41
2023-03-03T03:26:50.093Z,100067.00
2023-03-03T03:29:17.618Z,100075.88
2023-03-03T03:31:44.676Z,100076.13
2023-03-03T03:34:11.650Z,100075.56
2023-03-03T03:36:39.823Z,100084.44
2023-03-03T03:39:07.328Z,100083.72
2023-03-03T03:41:37.509Z,100092.44
2023-03-03T03:44:05.011Z,100084.69
2023-03-03T03:46:31.958Z,100082.88
2023-03-03T03:48:59.080Z,100088.97
2023-03-03T03:51:26.736Z,100094.38
2023-03-03T03:53:53.693Z,100092.72
2023-03-03T03:56:20.654Z,100091.06
2023-03-03T03:58:51.565Z,100090.22
2023-03-03T04:01:18.694Z,100088.66
2023-03-03T04:03:49.234Z,100084.66
2023-03-03T04:06:19.525Z,100077.97
2023-03-03T04:08:47.001Z,100083.75
2023-03-03T04:11:14.892Z,100086.91
2023-03-03T04:13:42.465Z,100089.13
2023-03-03T04:16:10.238Z,100086.88
2023-03-03T04:18:38.935Z,100087.25
2023-03-03T04:21:06.370Z,100088.34
2023-03-03T04:23:33.905Z,100094.94
2023-03-03T04:26:02.192Z,100094.25
2023-03-03T04:28:29.462Z,100094.50
2023-03-03T04:30:56.808Z,100100.84
2023-03-03T04:33:25.280Z,100093.19
2023-03-03T04:35:52.570Z,100092.50
2023-03-03T04:38:19.667Z,100090.97
2023-03-03T04:40:47.885Z,100090.25
2023-03-03T04:43:16.873Z,100094.81
2023-03-03T04:45:44.528Z,100095.09
2023-03-03T04:48:12.063Z,100103.06
2023-03-03T04:50:39.096Z,100097.38
2023-03-03T04:53:06.076Z,100102.88
2023-03-03T04:55:33.366Z,100096.09
2023-03-03T04:58:00.715Z,100099.91
2023-03-03T05:00:28.088Z,100104.59
2023-03-03T05:02:55.135Z,100115.22
2023-03-03T05:05:23.985Z,100116.44
2023-03-03T05:07:50.920Z,100113.97
2023-03-03T05:10:18.036Z,100117.66
2023-03-03T05:12:44.962Z,100124.84
2023-03-03T05:15:12.415Z,100113.72
2023-03-03T05:17:39.368Z,100120.06
2023-03-03T05:20:08.429Z,100120.19
2023-03-03T05:22:35.404Z,100128.31
2023-03-03T05:25:02.427Z,100127.63
2023-03-03T05:27:29.355Z,100128.72
2023-03-03T05:29:56.750Z,100138.50
2023-03-03T05:32:23.742Z,100138.63
2023-03-03T05:34:52.489Z,100134.47
2023-03-03T05:37:19.443Z,100147.59
2023-03-03T05:39:46.393Z,100149.38
2023-03-03T05:42:14.446Z,100152.09
2023-03-03T05:44:41.382Z,100148.78
2023-03-03T05:47:09.716Z,100155.00
2023-03-03T05:49:36.808Z,100162.88
2023-03-03T05:52:04.063Z,100163.00
2023-03-03T05:54:31.083Z,100166.69
2023-03-03T05:56:58.017Z,100166.94
2023-03-03T05:59:25.157Z,100174.13
2023-03-03T06:01:52.193Z,100173.25
2023-03-03T06:04:19.222Z,100176.00
2023-03-03T06:06:46.183Z,100182.22
2023-03-03T06:09:13.269Z,100181.53
2023-03-03T06:11:40.229Z,100172.91
2023-03-03T06:14:07.346Z,100179.13
2023-03-03T06:16:34.388Z,100180.09
2023-03-03T06:19:01.424Z,100182.00
2023-03-03T06:21:28.454Z,100178.66
2023-03-03T06:23:55.381Z,100182.22
2023-03-03T06:26:23.037Z,100170.06
2023-03-03T06:28:50.223Z,100176.13
2023-03-03T06:31:17.508Z,100183.78
2023-03-03T06:33:44.483Z,100182.00
2023-03-03T06:36:12.138Z,100178.41
2023-03-03T06:38:39.071Z,100183.66
2023-03-03T06:41:08.307Z,100186.03
2023-03-03T06:43:36.366Z,100192.03
2023-03-03T06:46:07.238Z,100197.03
2023-03-03T06:48:34.627Z,100189.88
2023-03-03T06:51:09.342Z,100206.22
2023-03-03T06:53:37.047Z,100196.41
2023-03-03T06:56:09.696Z,100197.84
2023-03-03T06:58:36.710Z,100195.81
2023-03-03T07:01:12.656Z,100193.91
2023-03-03T07:03:39.586Z,100199.75
2023-03-03T07:06:23.349Z,100202.72
2023-03-03T07:08:52.721Z,100209.28
2023-03-03T07:11:22.478Z,100218.63
2023-03-03T07:13:54.822Z,100216.34
2023-03-03T07:16:27.872Z,100215.09
2023-03-03T07:18:58.691Z,100223.47
2023-03-03T07:21:36.228Z,100224.16
2023-03-03T07:24:27.898Z,100226.44
2023-03-03T07:27:06.236Z,100239.22
2023-03-03T07:29:34.212Z,100234.44
2023-03-03T07:32:02.729Z,100239.31
2023-03-03T07:34:35.826Z,100238.94
2023-03-03T07:37:14.010Z,100236.78
2023-03-03T07:39:47.347Z,100242.38
2023-03-03T07:42:28.737Z,100247.97
2023-03-03T07:45:29.456Z,100251.78
2023-03-03T07:48:17.537Z,100254.63
2023-03-03T07:50:45.063Z,100258.41
2023-03-03T07:53:34.853Z,100261.38
2023-03-03T07:56:02.364Z,100269.47
2023-03-03T07:58:39.724Z,100267.16
2023-03-03T08:01:30.709Z,100264.03
2023-03-03T08:03:58.522Z,100259.91
2023-03-03T08:06:41.770Z,100263.00
2023-03-03T08:09:11.717Z,100264.97
2023-03-03T08:11:58.418Z,100270.56
2023-03-03T08:14:34.720Z,100265.63
2023-03-03T08:17:02.688Z,100261.34
2023-03-03T08:19:31.063Z,100267.78
2023-03-03T08:22:17.125Z,100266.31
2023-03-03T08:24:44.124Z,100276.31
2023-03-03T08:27:11.629Z,100279.13
2023-03-03T08:29:38.613Z,100275.00
2023-03-03T08:32:05.860Z,100285.44
2023-03-03T08:34:32.897Z,100289.22
2023-03-03T08:36:59.878Z,100283.97
2023-03-03T08:39:26.903Z,100286.53
2023-03-03T08:41:53.882Z,100290.97
2023-03-03T08:44:20.849Z,100289.34
2023-03-03T08:46:47.919Z,100292.13
2023-03-03T08:49:14.952Z,100287.00
2023-03-03T08:51:42.038Z,100287.16
2023-03-03T08:54:08.971Z,100286.31
2023-03-03T08:56:36.037Z,100285.50
2023-03-03T08:59:03.408Z,100292.44
2023-03-03T09:01:32.501Z,100285.53
2023-03-03T09:03:59.826Z,100283.69
2023-03-03T09:06:26.808Z,100280.19
2023-03-03T09:08:54.875Z,100286.31
2023-03-03T09:11:28.818Z,100287.09
2023-03-03T09:14:15.128Z,100284.59
2023-03-03T09:16:54.202Z,100288.19
2023-03-03T09:19:26.690Z,100291.78
2023-03-03T09:21:56.523Z,100295.91
2023-03-03T09:24:36.953Z,100292.28
2023-03-03T09:27:27.266Z,100297.25
2023-03-03T09:29:54.207Z,100303.97
2023-03-03T09:32:39.751Z,100305.19
2023-03-03T09:35:36.590Z,100301.22
2023-03-03T09:38:33.179Z,100307.97
2023-03-03T09:41:38.098Z,100311.09
2023-03-03T09:45:08.631Z,100309.03
2023-03-03T09:48:38.344Z,100306.84
2023-03-03T09:51:49.321Z,100311.63
2023-03-03T09:54:50.893Z,100317.38
2023-03-03T09:57:19.865Z,100312.84
2023-03-03T10:00:17.479Z,100310.25
2023-03-03T10:03:03.656Z,100307.34
2023-03-03T10:06:17.950Z,100306.78
2023-03-03T10:09:46.786Z,100306.19
2023-03-03T10:13:01.483Z,100313.41
2023-03-03T10:16:12.836Z,100311.31
2023-03-03T10:18:49.525Z,100312.53
2023-03-03T10:21:30.123Z,100315.09
2023-03-03T10:24:24.803Z,100318.59
2023-03-03T10:27:14.287Z,100318.47
2023-03-03T10:30:24.188Z,100325.13
2023-03-03T10:33:10.923Z,100323.03
2023-03-03T10:36:07.311Z,100323.56
2023-03-03T10:39:20.405Z,100331.88
2023-03-03T10:42:16.233Z,100321.75
2023-03-03T10:45:05.201Z,100325.91
2023-03-03T10:48:16.307Z,100320.94
2023-03-03T10:51:22.227Z,100318.59
2023-03-03T10:54:03.077Z,100314.81
2023-03-03T10:57:02.207Z,100314.28
2023-03-03T10:59:57.479Z,100310.63
2023-03-03T11:02:34.840Z,100310.44
2023-03-03T11:05:47.986Z,100318.88
2023-03-03T11:08:23.566Z,100314.38
2023-03-03T11:11:09.852Z,100319.16
2023-03-03T11:14:05.718Z,100316.78
2023-03-03T11:17:01.523Z,100319.41
2023-03-03T11:19:50.052Z,100316.84
2023-03-03T11:22:38.280Z,100312.94
2023-03-03T11:25:40.459Z,100313.53
2023-03-03T11:28:19.119Z,100311.44
2023-03-03T11:31:20.979Z,100308.31
2023-03-03T11:34:34.625Z,100308.00
2023-03-03T11:37:14.836Z,100306.94
2023-03-03T11:39:44.093Z,100292.38
2023-03-03T11:42:46.969Z,100297.53
2023-03-03T11:45:20.788Z,100294.44
2023-03-03T11:48:12.837Z,100294.28
2023-03-03T11:50:56.279Z,100287.91
2023-03-03T11:54:05.553Z,100292.59
2023-03-03T11:56:44.816Z,100279.75
2023-03-03T12:00:08.216Z,100280.94
2023-03-03T12:03:18.323Z,100277.41
2023-03-03T12:06:21.692Z,100275.69
2023-03-03T12:09:28.965Z,100277.50
2023-03-03T12:12:13.371Z,100275.84
2023-03-03T12:15:08.471Z,100268.94
2023-03-03T12:18:02.857Z,100263.06
2023-03-03T12:21:24.411Z,100264.41
2023-03-03T12:24:08.501Z,100265.44
2023-03-03T12:27:00.214Z,100257.09
2023-03-03T12:29:52.062Z,100255.75
2023-03-03T12:32:44.176Z,100252.91
2023-03-03T12:36:05.159Z,100254.19
2023-03-03T12:38:56.408Z,100249.91
2023-03-03T12:41:59.652Z,100245.19
2023-03-03T12:45:02.133Z,100246.47
2023-03-03T12:47:33.471Z,100239.88
2023-03-03T12:50:46.210Z,100234.16
2023-03-03T12:53:55.380Z,100236.88
2023-03-03T12:56:55.269Z,100232.38
2023-03-03T12:59:47.820Z,100223.94
2023-03-03T13:02:29.691Z,100220.91
2023-03-03T13:05:29.177Z,100219.06
2023-03-03T13:08:22.767Z,100218.28
2023-03-03T13:11:12.618Z,100225.50
2023-03-03T13:13:57.985Z,100215.63
2023-03-03T13:16:45.817Z,100223.69
2023-03-03T13:19:27.314Z,100224.91
2023-03-03T13:22:21.998Z,100223.47
2023-03-03T13:25:09.373Z,100226.38
2023-03-03T13:27:42.025Z,100216.25
2023-03-03T13:30:25.249Z,100221.63
2023-03-03T13:33:30.788Z,100214.19
2023-03-03T13:36:09.055Z,100223.50
2023-03-03T13:38:56.443Z,100216.88
2023-03-03T13:41:44.564Z,100220.00
2023-03-03T13:44:25.666Z,100213.78
2023-03-03T13:47:19.481Z,100213.78
2023-03-03T13:49:56.921Z,100204.28
2023-03-03T13:52:29.039Z,100207.59
2023-03-03T13:55:18.796Z,100208.44
2023-03-03T13:57:46.948Z,100202.44
2023-03-03T14:00:27.334Z,100204.28
2023-03-03T14:03:05.833Z,100193.97
2023-03-03T14:05:49.043Z,100196.44
2023-03-03T14:09:19.891Z,100185.47
2023-03-03T14:12:07.878Z,100185.69
2023-03-03T14:14:59.226Z,100184.88
2023-03-03T14:17:49.924Z,100172.91
2023-03-03T14:20:29.026Z,100173.53
2023-03-03T14:23:04.006Z,100172.69
2023-03-03T14:25:52.631Z,100173.31
2023-03-03T14:28:23.995Z,100173.53
2023-03-03T14:30:58.642Z,100168.16
2023-03-03T14:33:32.265Z,100164.44
2023-03-03T14:35:59.490Z,100170.00
2023-03-03T14:38:32.651Z,100164.22
2023-03-03T14:41:18.230Z,100165.03
2023-03-03T14:44:24.036Z,100162.16
2023-03-03T14:47:11.469Z,100160.50
2023-03-03T14:49:40.445Z,100158.44
2023-03-03T14:52:16.437Z,100160.91
2023-03-03T14:54:56.540Z,100159.28
2023-03-03T14:57:46.998Z,100155.53
2023-03-03T15:00:14.810Z,100158.84
2023-03-03T15:02:52.595Z,100149.75
2023-03-03T15:05:22.512Z,100162.16
2023-03-03T15:08:11.073Z,100155.13
2023-03-03T15:10:45.956Z,100149.38
2023-03-03T15:13:22.044Z,100147.72
2023-03-03T15:16:24.207Z,100145.22
2023-03-03T15:19:19.349Z,100152.03
2023-03-03T15:21:51.746Z,100142.34
2023-03-03T15:24:49.645Z,100148.09
2023-03-03T15:27:28.814Z,100146.84
2023-03-03T15:30:22.388Z,100152.22
2023-03-03T15:33:01.630Z,100149.88
2023-03-03T15:35:48.596Z,100146.56
2023-03-03T15:39:16.152Z,100151.69
2023-03-03T15:42:35.805Z,100150.03
2023-03-03T15:45:46.723Z,100149.19
2023-03-03T15:48:43.648Z,100147.50
2023-03-03T15:51:25.453Z,100154.69
2023-03-03T15:54:15.015Z,100148.50
2023-03-03T15:56:52.740Z,100148.63
2023-03-03T15:59:26.331Z,100147.78
2023-03-03T16:02:10.571Z,100150.25
2023-03-03T16:04:45.824Z,100151.25
2023-03-03T16:07:58.607Z,100148.09
2023-03-03T16:11:09.379Z,100149.22
2023-03-03T16:14:10.704Z,100153.66
2023-03-03T16:17:15.702Z,100150.91
2023-03-03T16:20:01.201Z,100158.34
2023-03-03T16:23:07.763Z,100164.38
2023-03-03T16:26:04.962Z,100163.63
2023-03-03T16:28:59.660Z,100166.81
2023-03-03T16:31:58.470Z,100161.53
2023-03-03T16:34:56.086Z,100172.06
2023-03-03T16:37:34.949Z,100179.72
2023-03-03T16:40:23.277Z,100175.72
2023-03-03T16:43:09.601Z,100174.34
2023-03-03T16:45:40.094Z,100182.66
2023-03-03T16:48:45.872Z,100184.13
2023-03-03T16:51:28.237Z,100185.78
2023-03-03T16:54:38.099Z,100196.03
2023-03-03T16:57:28.750Z,100196.66
2023-03-03T17:00:21.321Z,100197.66
2023-03-03T17:03:45.391Z,100201.13
2023-03-03T17:06:34.949Z,100206.22
2023-03-03T17:09:50.114Z,100213.81
2023-03-03T17:12:53.829Z,100218.06
2023-03-03T17:15:31.134Z,100228.09
2023-03-03T17:19:04.522Z,100228.84
2023-03-03T17:22:06.080Z,100225.75
2023-03-03T17:24:48.838Z,100231.31
2023-03-03T17:27:31.604Z,100231.66
2023-03-03T17:30:40.592Z,100235.56
2023-03-03T17:33:39.279Z,100246.56
2023-03-03T17:37:12.890Z,100243.59
2023-03-03T17:40:12.375Z,100242.94
2023-03-03T17:43:01.022Z,100251.91
2023-03-03T17:45:34.066Z,100254.41
2023-03-03T17:48:34.330Z,100255.44
2023-03-03T17:51:24.649Z,100256.09
2023-03-03T17:54:27.932Z,100266.59
2023-03-03T17:57:22.520Z,100268.25
2023-03-03T18:00:33.107Z,100278.06
2023-03-03T18:03:15.219Z,100272.56
2023-03-03T18:06:30.165Z,100273.53
2023-03-03T18:09:48.778Z,100282.31
2023-03-03T18:12:22.284Z,100277.66
2023-03-03T18:15:05.265Z,100283.63
2023-03-03T18:18:03.478Z,100286.09
2023-03-03T18:21:07.521Z,100282.44
2023-03-03T18:23:45.194Z,100294.53
2023-03-03T18:26:36.055Z,100290.03
2023-03-03T18:29:23.591Z,100290.84
2023-03-03T18:31:53.828Z,100296.13
2023-03-03T18:34:21.189Z,100299.41
2023-03-03T18:37:08.116Z,100299.38
2023-03-03T18:39:47.881Z,100301.84
2023-03-03T18:42:27.252Z,100302.91
2023-03-03T18:44:54.212Z,100308.19
2023-03-03T18:47:59.223Z,100302.31
2023-03-03T18:50:37.965Z,100311.72
2023-03-03T18:53:10.985Z,100312.34
2023-03-03T18:55:50.016Z,100312.94
2023-03-03T18:58:17.289Z,100308.81
2023-03-03T19:00:52.798Z,100318.03
2023-03-03T19:04:17.098Z,100317.81
2023-03-03T19:07:04.344Z,100321.94
2023-03-03T19:09:57.068Z,100328.84
2023-03-03T19:12:55.434Z,100322.47
2023-03-03T19:15:33.554Z,100321.94
2023-03-03T19:18:03.210Z,100321.41
2023-03-03T19:20:48.650Z,100327.16
2023-03-03T19:23:24.389Z,100330.91
2023-03-03T19:26:25.536Z,100330.56
2023-03-03T19:29:42.633Z,100332.66
2023-03-03T19:32:28.505Z,100343.88
2023-03-03T19:35:10.229Z,100344.19
2023-03-03T19:37:54.898Z,100343.78
2023-03-03T19:40:36.738Z,100345.88
2023-03-03T19:43:46.969Z,100348.84
2023-03-03T19:46:40.943Z,100347.63
2023-03-03T19:49:46.234Z,100351.53
2023-03-03T19:52:37.533Z,100354.66
2023-03-03T19:55:04.322Z,100360.38
2023-03-03T19:57:58.723Z,100353.03
2023-03-03T20:00:49.665Z,100352.78
2023-03-03T20:03:59.622Z,100355.19
2023-03-03T20:06:43.693Z,100348.66
2023-03-03T20:09:27.629Z,100358.84
2023-03-03T20:12:10.009Z,100361.25
2023-03-03T20:14:59.086Z,100367.81
2023-03-03T20:17:52.142Z,100370.03
2023-03-03T20:20:33.948Z,100376.63
2023-03-03T20:23:24.931Z,100378.84
2023-03-03T20:26:20.656Z,100381.09
2023-03-03T20:29:19.797Z,100377.03
2023-03-03T20:31:57.577Z,100369.72
2023-03-03T20:35:05.305Z,100374.72
2023-03-03T20:38:12.594Z,100375.41
2023-03-03T20:41:02.426Z,100378.91
2023-03-03T20:43:48.758Z,100384.78
2023-03-03T20:46:41.188Z,100383.50
2023-03-03T20:49:49.782Z,100382.25
2023-03-03T20:52:47.009Z,100388.81
2023-03-03T20:55:17.218Z,100382.13
2023-03-03T20:58:03.904Z,100384.22
2023-03-03T21:01:05.068Z,100383.66
2023-03-03T21:03:42.313Z,100383.13
2023-03-03T21:06:16.087Z,100395.50
2023-03-03T21:08:55.045Z,100398.56
2023-03-03T21:11:31.245Z,100398.69
2023-03-03T21:14:10.104Z,100398.94
2023-03-03T21:16:37.462Z,100402.84
2023-03-03T21:19:23.578Z,100398.81
2023-03-03T21:21:51.584Z,100405.31
2023-03-03T21:24:22.583Z,100398.66
2023-03-03T21:26:49.478Z,100402.41
2023-03-03T21:29:30.306Z,100398.53
2023-03-03T21:31:59.919Z,100407.53
2023-03-03T21:34:36.850Z,100400.00
2023-03-03T21:37:34.772Z,100401.25
2023-03-03T21:40:23.261Z,100405.13
2023-03-03T21:42:51.479Z,100401.94
2023-03-03T21:45:23.620Z,100406.63
2023-03-03T21:47:52.021Z,100408.84
2023-03-03T21:50:21.960Z,100411.63
2023-03-03T21:52:49.145Z,100408.53
2023-03-03T21:55:16.243Z,100402.72
2023-03-03T21:57:43.281Z,100405.75
2023-03-03T22:00:11.249Z,100409.63
2023-03-03T22:02:38.513Z,100408.22
2023-03-03T22:05:07.537Z,100405.00
2023-03-03T22:07:34.713Z,100418.47
2023-03-03T22:10:01.815Z,100410.09
2023-03-03T22:12:28.753Z,100412.19
2023-03-03T22:14:55.895Z,100411.59
2023-03-03T22:17:25.388Z,100402.41
2023-03-03T22:19:52.649Z,100408.91
2023-03-03T22:22:19.667Z,100409.31
2023-03-03T22:24:46.614Z,100406.22
2023-03-03T22:27:14.453Z,100396.91
2023-03-03T22:29:41.506Z,100416.59
2023-03-03T22:32:08.558Z,100418.75
2023-03-03T22:34:36.062Z,100417.38
2023-03-03T22:37:03.244Z,100411.50
2023-03-03T22:39:30.245Z,100419.81
2023-03-03T22:41:57.238Z,100416.72
2023-03-03T22:44:24.394Z,100424.88
2023-03-03T22:46:51.470Z,100425.28
2023-03-03T22:49:18.702Z,100428.28
2023-03-03T22:51:45.712Z,100432.13
2023-03-03T22:54:12.866Z,100421.00
2023-03-03T22:56:39.895Z,100431.78
2023-03-03T22:59:06.863Z,100425.22
2023-03-03T23:01:33.775Z,100430.06
2023-03-03T23:04:01.331Z,100435.56
2023-03-03T23:06:28.645Z,100428.88
2023-03-03T23:08:55.624Z,100432.72
2023-03-03T23:11:24.668Z,100432.25
2023-03-03T23:13:51.766Z,100433.34
2023-03-03T23:16:19.033Z,100436.34
2023-03-03T23:18:46.495Z,100438.41
2023-03-03T23:21:13.485Z,100432.41
2023-03-03T23:23:40.439Z,100430.16
2023-03-03T23:26:07.548Z,100436.38
2023-03-03T23:28:34.659Z,100433.97
2023-03-03T23:31:01.957Z,100444.66
2023-03-03T23:33:29.148Z,100444.03
2023-03-03T23:35:56.543Z,100433.75
2023-03-03T23:38:23.669Z,100443.59
2023-03-03T23:40:50.620Z,100440.34
2023-03-03T23:43:17.606Z,100450.19
2023-03-03T23:45:44.634Z,100447.75
2023-03-03T23:48:11.884Z,100447.19
2023-03-03T23:50:39.223Z,100447.41
2023-03-03T23:53:07.474Z,100447.69
2023-03-03T23:55:36.052Z,100451.38
2023-03-03T23:58:03.738Z,100452.44
